»·PEaware :: AWE176 KLAS-KBUR

AWE176 :: KLAS-KBUR

FLIGHT INFORMATION

Flight Status: Arrived
Operator:
US Airways
More flights by this operator :: More flights under this callsign
Pilot: Dave P. (45)
Aircraft: BOEING 737-700
(B737)
More flights by this aircraft type
Origin: KLAS McCarran Intl
United States
Destination: KBUR Bob Hope-Burbank
United States
More flights between these airports :: More routes between these airports
Route: +BOACH8 WHIGG KREME JANNY3
File this flight plan on PilotEdge
Remarks: PBN / A1B1C1D1S1S2 DOF / 180421 REG / N737PM OPR / AWE PER / C RMK / TCAS
Altitude:
(Current/Filed)
22,000ft
Speed:
(Current/Filed)
422kts
Departed: 21-Apr-18 08:37 AM
Arrived: 21-Apr-18 09:24 AM
Distance/Time
Traveled:
193nm/0:47
Distance/Time
To Go:
Arrived

Flight Plot

Page will automatically refresh every two minutes.

Flight plan parsing failed; only flown route is shown


Map Options




Map Legend


Flown Route
Filed Route
Departure Airport
Arrival Airport
Navaid (VOR, NDB)
Fix

Horizontal Profiles

Position Reports

Time Latitude Longitude Heading Altitude Ground
Speed
21-Apr-18 08:14 36.082277 -115.152628 348 2189ft 0kts
21-Apr-18 08:15 36.082277 -115.152628 348 2189ft 0kts
21-Apr-18 08:16 36.082277 -115.152628 348 2189ft 0kts
21-Apr-18 08:17 36.082277 -115.152628 348 2189ft 0kts
21-Apr-18 08:18 36.082277 -115.152628 348 2189ft 0kts
21-Apr-18 08:19 36.082277 -115.152628 348 2189ft 0kts
21-Apr-18 08:20 36.082277 -115.152628 348 2189ft 0kts
21-Apr-18 08:21 36.082277 -115.152628 348 2189ft 0kts
21-Apr-18 08:22 36.082277 -115.152628 348 2189ft 0kts
21-Apr-18 08:23 36.082277 -115.152628 348 2189ft 0kts
21-Apr-18 08:24 36.082117 -115.152587 348 2189ft 2kts
21-Apr-18 08:25 36.081580 -115.152449 348 2189ft 0kts
21-Apr-18 08:26 36.081580 -115.152449 348 2189ft 0kts
21-Apr-18 08:27 36.080991 -115.151877 180 2189ft 15kts
21-Apr-18 08:28 36.079376 -115.151918 181 2189ft 0kts
21-Apr-18 08:29 36.079374 -115.151918 181 2189ft 0kts
21-Apr-18 08:30 36.078656 -115.150029 94 2189ft 20kts
21-Apr-18 08:31 36.078246 -115.142886 92 2189ft 19kts
21-Apr-18 08:32 36.078237 -115.134841 89 2189ft 21kts
21-Apr-18 08:33 36.078246 -115.127652 89 2189ft 17kts
21-Apr-18 08:34 36.077812 -115.122331 117 2189ft 11kts
21-Apr-18 08:35 36.077066 -115.121294 180 2189ft 2kts
21-Apr-18 08:36 36.076342 -115.129658 269 2189ft 103kts
21-Apr-18 08:37 36.075863 -115.182034 270 4081ft 163kts
21-Apr-18 08:38 36.069465 -115.252053 234 5621ft 255kts
21-Apr-18 08:39 35.998798 -115.288077 200 7001ft 287kts
21-Apr-18 08:40 35.920561 -115.308076 184 9097ft 295kts
21-Apr-18 08:41 35.833134 -115.313480 175 11768ft 349kts
21-Apr-18 08:42 35.730567 -115.300702 174 14763ft 382kts
21-Apr-18 08:43 35.635948 -115.350439 227 18174ft 392kts
21-Apr-18 08:44 35.561507 -115.451650 229 21362ft 405kts
21-Apr-18 08:45 35.483359 -115.554630 226 22215ft 418kts
21-Apr-18 08:46 35.399336 -115.653085 225 22214ft 418kts
21-Apr-18 08:47 35.315288 -115.751997 225 22213ft 418kts
21-Apr-18 08:48 35.231732 -115.850689 225 22219ft 418kts
21-Apr-18 08:49 35.147867 -115.949761 225 22214ft 418kts
21-Apr-18 08:50 35.064256 -116.048272 225 22213ft 417kts
21-Apr-18 08:51 34.980507 -116.146204 224 22213ft 417kts
21-Apr-18 08:52 34.905632 -116.253501 242 22225ft 415kts
21-Apr-18 08:53 34.856110 -116.380250 245 22222ft 415kts
21-Apr-18 08:54 34.809492 -116.508342 253 22233ft 414kts
21-Apr-18 08:55 34.791093 -116.646444 262 22221ft 412kts
21-Apr-18 08:56 34.775918 -116.784595 262 22213ft 412kts
21-Apr-18 08:57 34.760514 -116.922857 262 22220ft 413kts
21-Apr-18 08:58 34.745291 -117.061547 262 22235ft 413kts
21-Apr-18 08:59 34.729925 -117.199644 262 22242ft 412kts
21-Apr-18 09:00 34.714311 -117.337568 262 22234ft 405kts
21-Apr-18 09:01 34.699013 -117.471193 262 21769ft 393kts
21-Apr-18 09:02 34.684197 -117.601398 262 19292ft 384kts
21-Apr-18 09:03 34.669223 -117.728864 262 16623ft 379kts
21-Apr-18 09:04 34.654509 -117.853366 262 14282ft 366kts
21-Apr-18 09:05 34.641320 -117.973788 263 12681ft 353kts
21-Apr-18 09:06 34.627471 -118.085927 257 11334ft 318kts
21-Apr-18 09:07 34.605041 -118.184584 254 10117ft 292kts
21-Apr-18 09:08 34.583822 -118.278000 253 8960ft 285kts
21-Apr-18 09:09 34.563088 -118.370241 253 8012ft 279kts
21-Apr-18 09:10 34.519526 -118.438203 217 7620ft 230kts
21-Apr-18 09:11 34.474314 -118.484165 217 6622ft 205kts
21-Apr-18 09:12 34.431749 -118.527101 217 5988ft 197kts
21-Apr-18 09:13 34.388646 -118.570494 217 5979ft 203kts
21-Apr-18 09:14 34.345128 -118.614269 217 5956ft 203kts
21-Apr-18 09:15 34.301743 -118.657919 217 5950ft 202kts
21-Apr-18 09:16 34.249784 -118.662307 172 5014ft 191kts
21-Apr-18 09:17 34.214584 -118.619272 122 3972ft 186kts
21-Apr-18 09:18 34.200194 -118.561111 89 3794ft 191kts
21-Apr-18 09:19 34.199652 -118.497622 90 2792ft 186kts
21-Apr-18 09:20 34.198868 -118.439785 90 1866ft 148kts
21-Apr-18 09:21 34.198230 -118.392848 90 1137ft 139kts
21-Apr-18 09:22 34.197671 -118.351954 90 729ft 57kts
21-Apr-18 09:23 34.196838 -118.350183 197 729ft 0kts
21-Apr-18 09:24 34.196838 -118.350183 197 729ft 0kts
21-Apr-18 09:25 34.196838 -118.350183 197 729ft 0kts

Navigation Log

Ident Type
Flight plan parsing failed, navigation log unavailable